Spoonerville, Vermont
Current Conditions -  °F | °C
As of 1:54 AM on Saturday 20 Dec 2014 (Local Time) from KVSF Reporting Station
Few Clouds Few Clouds  
Wind Chill: 11°   Ceiling: Unl
Heat Index: 21°   Visibility: 10mi
Dew Point: 15°   Wind: 9mph
Humidity: 78%   Direction: 10°N
Pressure: 30.21"   Gusts: NA
Location:  43.3606°N, 72.5739°W
Report Text: KVSF 200654Z AUTO 01008KT 10SM FEW019 M06/M09 A3021 RMK AO2 SLP239 T10611094 TSNO
Loading
Personal Weather Stations






























Interactive Weather Map New forecast layout! Learn more

10-Day Weather Forecast

Advertisements
Track Severe Weather on mobile